ACA413 CYUL-CYYZ
Flight info
| Callsign | ACA413 |
|---|---|
| Flight time | 0h 57m |
| Altitude | 34000 |
| Route | BOBKI DCT MELTI DCT TORNI RAGID6 |
| Aircraft | A320/M-SDE3FGHIRWY/LB1 |
Departure
| Time | 2026-05-05 21:51 |
|---|---|
| Airport | Montreal / Pierre Elliott Trudeau International Airport (CYUL) |
Arrival
| Time | 2026-05-05 22:48 |
|---|---|
| Airport | Toronto Pearson International Airport (CYYZ) |
| Time | Latitude | Longitude | Altitude | Speed | Heading |
|---|---|---|---|---|---|
| 2026-05-05 21:16 | 45.45931 | -73.74848 | 105 ft | 0 kts | 178° |
| 2026-05-05 21:37 | 45.45951 | -73.74850 | 104 ft | 4 kts | 167° |
| 2026-05-05 21:38 | 45.45975 | -73.74864 | 104 ft | 4 kts | 127° |
| 2026-05-05 21:38 | 45.45981 | -73.74884 | 102 ft | 0 kts | 88° |
| 2026-05-05 21:41 | 45.45981 | -73.74874 | 103 ft | 3 kts | 88° |
| 2026-05-05 21:41 | 45.45983 | -73.74830 | 105 ft | 6 kts | 88° |
| 2026-05-05 21:42 | 45.45975 | -73.74756 | 105 ft | 9 kts | 109° |
| 2026-05-05 21:42 | 45.45957 | -73.74675 | 105 ft | 8 kts | 104° |
| 2026-05-05 21:42 | 45.45959 | -73.74583 | 105 ft | 10 kts | 72° |
| 2026-05-05 21:42 | 45.45979 | -73.74482 | 104 ft | 10 kts | 72° |
| 2026-05-05 21:43 | 45.45993 | -73.74388 | 103 ft | 10 kts | 102° |
| 2026-05-05 21:43 | 45.45971 | -73.74299 | 103 ft | 10 kts | 84° |
| 2026-05-05 21:43 | 45.46016 | -73.74218 | 102 ft | 11 kts | 42° |
| 2026-05-05 21:43 | 45.46066 | -73.74154 | 103 ft | 9 kts | 42° |
| 2026-05-05 21:44 | 45.46110 | -73.74097 | 104 ft | 10 kts | 42° |
| 2026-05-05 21:44 | 45.46169 | -73.74020 | 105 ft | 14 kts | 43° |
| 2026-05-05 21:44 | 45.46249 | -73.73912 | 104 ft | 18 kts | 43° |
| 2026-05-05 21:44 | 45.46346 | -73.73784 | 107 ft | 21 kts | 41° |
| 2026-05-05 21:45 | 45.46463 | -73.73635 | 109 ft | 24 kts | 41° |
| 2026-05-05 21:45 | 45.46577 | -73.73481 | 109 ft | 23 kts | 44° |
| 2026-05-05 21:45 | 45.46673 | -73.73358 | 112 ft | 18 kts | 41° |
| 2026-05-05 21:45 | 45.46774 | -73.73227 | 114 ft | 21 kts | 43° |
| 2026-05-05 21:46 | 45.46881 | -73.73081 | 114 ft | 23 kts | 43° |
| 2026-05-05 21:46 | 45.47007 | -73.72922 | 117 ft | 21 kts | 42° |
| 2026-05-05 21:46 | 45.47110 | -73.72784 | 116 ft | 22 kts | 43° |
| 2026-05-05 21:46 | 45.47229 | -73.72621 | 118 ft | 25 kts | 43° |
| 2026-05-05 21:47 | 45.47351 | -73.72466 | 119 ft | 23 kts | 40° |
| 2026-05-05 21:47 | 45.47468 | -73.72321 | 118 ft | 21 kts | 43° |
| 2026-05-05 21:47 | 45.47568 | -73.72182 | 118 ft | 19 kts | 45° |
| 2026-05-05 21:47 | 45.47658 | -73.72053 | 119 ft | 18 kts | 44° |
| 2026-05-05 21:48 | 45.47749 | -73.71947 | 120 ft | 16 kts | 39° |
| 2026-05-05 21:48 | 45.47811 | -73.71869 | 122 ft | 10 kts | 42° |
| 2026-05-05 21:48 | 45.47860 | -73.71804 | 120 ft | 9 kts | 43° |
| 2026-05-05 21:48 | 45.47866 | -73.71725 | 118 ft | 8 kts | 119° |
| 2026-05-05 21:49 | 45.47832 | -73.71661 | 121 ft | 9 kts | 130° |
| 2026-05-05 21:49 | 45.47792 | -73.71600 | 123 ft | 8 kts | 133° |
| 2026-05-05 21:49 | 45.47758 | -73.71564 | 124 ft | 4 kts | 165° |
| 2026-05-05 21:49 | 45.47732 | -73.71573 | 123 ft | 5 kts | 209° |
| 2026-05-05 21:50 | 45.47705 | -73.71605 | 123 ft | 7 kts | 221° |
| 2026-05-05 21:50 | 45.47604 | -73.71744 | 124 ft | 50 kts | 225° |
| 2026-05-05 21:50 | 45.47171 | -73.72311 | 118 ft | 115 kts | 222° |
| 2026-05-05 21:50 | 45.46455 | -73.73223 | 238 ft | 151 kts | 226° |
| 2026-05-05 21:51 | 45.45636 | -73.74129 | 991 ft | 150 kts | 217° |
| 2026-05-05 21:51 | 45.44806 | -73.75064 | 1747 ft | 155 kts | 222° |
| 2026-05-05 21:51 | 45.43933 | -73.76136 | 2304 ft | 175 kts | 224° |
| 2026-05-05 21:51 | 45.42989 | -73.77357 | 2924 ft | 191 kts | 225° |
| 2026-05-05 21:52 | 45.40963 | -73.80369 | 4037 ft | 228 kts | 250° |
| 2026-05-05 21:52 | 45.40808 | -73.82631 | 4956 ft | 234 kts | 271° |
| 2026-05-05 21:52 | 45.40887 | -73.84930 | 6051 ft | 232 kts | 269° |
| 2026-05-05 21:53 | 45.40943 | -73.87220 | 7076 ft | 231 kts | 268° |
| 2026-05-05 21:53 | 45.40987 | -73.89521 | 8030 ft | 234 kts | 267° |
| 2026-05-05 21:53 | 45.41024 | -73.91845 | 9014 ft | 236 kts | 266° |
| 2026-05-05 21:53 | 45.41056 | -73.94163 | 9946 ft | 238 kts | 266° |
| 2026-05-05 21:54 | 45.41085 | -73.96599 | 10451 ft | 257 kts | 266° |
| 2026-05-05 21:54 | 45.41112 | -73.99267 | 10754 ft | 280 kts | 266° |
| 2026-05-05 21:54 | 45.41146 | -74.02090 | 11377 ft | 289 kts | 266° |
| 2026-05-05 21:54 | 45.41188 | -74.04973 | 12183 ft | 293 kts | 266° |
| 2026-05-05 21:55 | 45.41230 | -74.07892 | 13027 ft | 296 kts | 266° |
| 2026-05-05 21:55 | 45.41273 | -74.10839 | 13839 ft | 299 kts | 266° |
| 2026-05-05 21:55 | 45.41317 | -74.13812 | 14582 ft | 302 kts | 266° |
| 2026-05-05 21:55 | 45.41360 | -74.16823 | 15302 ft | 306 kts | 266° |
| 2026-05-05 21:56 | 45.41401 | -74.19869 | 15984 ft | 310 kts | 266° |
| 2026-05-05 21:56 | 45.41442 | -74.22963 | 16701 ft | 314 kts | 266° |
| 2026-05-05 21:56 | 45.41480 | -74.26085 | 17399 ft | 318 kts | 266° |
| 2026-05-05 21:56 | 45.41517 | -74.29244 | 18052 ft | 322 kts | 265° |
| 2026-05-05 21:57 | 45.41551 | -74.32444 | 18643 ft | 325 kts | 265° |
| 2026-05-05 21:57 | 45.41584 | -74.35686 | 19236 ft | 329 kts | 265° |
| 2026-05-05 21:57 | 45.41616 | -74.38962 | 19833 ft | 332 kts | 265° |
| 2026-05-05 21:57 | 45.41619 | -74.42224 | 20420 ft | 334 kts | 261° |
| 2026-05-05 21:58 | 45.41254 | -74.45468 | 21007 ft | 332 kts | 253° |
| 2026-05-05 21:58 | 45.40715 | -74.48684 | 21614 ft | 335 kts | 252° |
| 2026-05-05 21:58 | 45.40171 | -74.51924 | 22204 ft | 339 kts | 252° |
| 2026-05-05 21:58 | 45.39622 | -74.55199 | 22785 ft | 342 kts | 252° |
| 2026-05-05 21:59 | 45.39066 | -74.58503 | 23306 ft | 345 kts | 252° |
| 2026-05-05 21:59 | 45.38506 | -74.61829 | 23779 ft | 347 kts | 253° |
| 2026-05-05 21:59 | 45.37945 | -74.65174 | 24269 ft | 348 kts | 253° |
| 2026-05-05 21:59 | 45.37383 | -74.68526 | 24741 ft | 350 kts | 253° |
| 2026-05-05 22:00 | 45.36814 | -74.71898 | 25205 ft | 351 kts | 253° |
| 2026-05-05 22:00 | 45.36241 | -74.75284 | 25661 ft | 352 kts | 254° |
| 2026-05-05 22:00 | 45.35667 | -74.78674 | 26104 ft | 354 kts | 254° |
| 2026-05-05 22:00 | 45.35089 | -74.82084 | 26541 ft | 356 kts | 254° |
| 2026-05-05 22:01 | 45.34507 | -74.85510 | 26974 ft | 357 kts | 254° |
| 2026-05-05 22:01 | 45.33922 | -74.88952 | 27381 ft | 359 kts | 254° |
| 2026-05-05 22:01 | 45.33333 | -74.92405 | 27788 ft | 361 kts | 255° |
| 2026-05-05 22:01 | 45.32738 | -74.95873 | 28188 ft | 362 kts | 255° |
| 2026-05-05 22:02 | 45.32137 | -74.99356 | 28569 ft | 364 kts | 255° |
| 2026-05-05 22:02 | 45.31531 | -75.02855 | 28943 ft | 365 kts | 255° |
| 2026-05-05 22:02 | 45.30930 | -75.06320 | 29296 ft | 367 kts | 255° |
| 2026-05-05 22:02 | 45.30319 | -75.09846 | 29642 ft | 368 kts | 255° |
| 2026-05-05 22:03 | 45.29704 | -75.13386 | 29944 ft | 370 kts | 255° |
| 2026-05-05 22:03 | 45.29085 | -75.16945 | 30214 ft | 371 kts | 255° |
| 2026-05-05 22:03 | 45.28466 | -75.20505 | 30490 ft | 372 kts | 255° |
| 2026-05-05 22:03 | 45.27845 | -75.24073 | 30748 ft | 373 kts | 255° |
| 2026-05-05 22:04 | 45.27224 | -75.27633 | 31078 ft | 371 kts | 255° |
| 2026-05-05 22:04 | 45.26603 | -75.31176 | 31451 ft | 369 kts | 255° |
| 2026-05-05 22:04 | 45.25981 | -75.34715 | 31788 ft | 368 kts | 256° |
| 2026-05-05 22:04 | 45.25360 | -75.38225 | 32165 ft | 366 kts | 256° |
| 2026-05-05 22:05 | 45.24740 | -75.41727 | 32536 ft | 365 kts | 256° |
| 2026-05-05 22:05 | 45.24131 | -75.45166 | 32880 ft | 363 kts | 256° |
| 2026-05-05 22:05 | 45.23519 | -75.48634 | 33223 ft | 362 kts | 256° |
| 2026-05-05 22:05 | 45.22907 | -75.52093 | 33575 ft | 361 kts | 256° |
| 2026-05-05 22:06 | 45.22295 | -75.55542 | 33691 ft | 358 kts | 256° |
| 2026-05-05 22:06 | 45.21086 | -75.62341 | 33703 ft | 354 kts | 257° |
| 2026-05-05 22:07 | 45.19875 | -75.69104 | 33696 ft | 354 kts | 256° |
| 2026-05-05 22:07 | 45.18655 | -75.75862 | 33697 ft | 354 kts | 256° |
| 2026-05-05 22:08 | 45.17437 | -75.82615 | 33698 ft | 354 kts | 257° |
| 2026-05-05 22:08 | 45.16221 | -75.89370 | 33712 ft | 354 kts | 256° |
| 2026-05-05 22:09 | 45.14985 | -75.96121 | 33710 ft | 354 kts | 256° |
| 2026-05-05 22:09 | 45.13754 | -76.02864 | 33720 ft | 354 kts | 257° |
| 2026-05-05 22:10 | 45.12528 | -76.09615 | 33730 ft | 354 kts | 257° |
| 2026-05-05 22:10 | 45.11295 | -76.16318 | 33736 ft | 354 kts | 256° |
| 2026-05-05 22:11 | 45.09961 | -76.23028 | 33734 ft | 355 kts | 251° |
| 2026-05-05 22:11 | 45.07648 | -76.29250 | 33739 ft | 359 kts | 245° |
| 2026-05-05 22:12 | 45.05214 | -76.35409 | 33742 ft | 359 kts | 245° |
| 2026-05-05 22:12 | 45.02776 | -76.41585 | 33742 ft | 360 kts | 245° |
| 2026-05-05 22:13 | 45.00331 | -76.47762 | 33749 ft | 360 kts | 245° |
| 2026-05-05 22:13 | 44.97879 | -76.53932 | 33750 ft | 361 kts | 245° |
| 2026-05-05 22:14 | 44.95419 | -76.60112 | 33752 ft | 361 kts | 245° |
| 2026-05-05 22:14 | 44.92959 | -76.66292 | 33762 ft | 362 kts | 245° |
| 2026-05-05 22:15 | 44.90909 | -76.71433 | 33764 ft | 362 kts | 245° |
| 2026-05-05 22:15 | 44.88435 | -76.77622 | 33768 ft | 362 kts | 245° |
| 2026-05-05 22:16 | 44.85951 | -76.83817 | 33766 ft | 363 kts | 245° |
| 2026-05-05 22:16 | 44.83465 | -76.90011 | 33771 ft | 363 kts | 245° |
| 2026-05-05 22:17 | 44.80967 | -76.96202 | 33774 ft | 364 kts | 245° |
| 2026-05-05 22:17 | 44.79716 | -76.99299 | 33628 ft | 365 kts | 245° |
| 2026-05-05 22:17 | 44.78461 | -77.02407 | 33350 ft | 365 kts | 244° |
| 2026-05-05 22:17 | 44.77206 | -77.05516 | 33074 ft | 366 kts | 244° |
| 2026-05-05 22:18 | 44.75942 | -77.08638 | 32803 ft | 366 kts | 244° |
| 2026-05-05 22:18 | 44.74681 | -77.11753 | 32539 ft | 367 kts | 244° |
| 2026-05-05 22:18 | 44.73416 | -77.14881 | 32273 ft | 368 kts | 244° |
| 2026-05-05 22:18 | 44.72147 | -77.18012 | 32007 ft | 369 kts | 244° |
| 2026-05-05 22:19 | 44.70854 | -77.21190 | 31739 ft | 370 kts | 244° |
| 2026-05-05 22:19 | 44.69573 | -77.24330 | 31493 ft | 371 kts | 243° |
| 2026-05-05 22:19 | 44.68309 | -77.27438 | 31238 ft | 372 kts | 243° |
| 2026-05-05 22:19 | 44.67027 | -77.30593 | 30980 ft | 372 kts | 243° |
| 2026-05-05 22:20 | 44.65725 | -77.33789 | 30726 ft | 372 kts | 243° |
| 2026-05-05 22:20 | 44.64444 | -77.36939 | 30485 ft | 371 kts | 243° |
| 2026-05-05 22:20 | 44.63168 | -77.40073 | 30243 ft | 369 kts | 243° |
| 2026-05-05 22:20 | 44.61893 | -77.43197 | 29997 ft | 368 kts | 243° |
| 2026-05-05 22:21 | 44.60616 | -77.46311 | 29729 ft | 367 kts | 243° |
| 2026-05-05 22:21 | 44.59363 | -77.49358 | 29458 ft | 365 kts | 243° |
| 2026-05-05 22:21 | 44.58096 | -77.52439 | 29169 ft | 364 kts | 242° |
| 2026-05-05 22:21 | 44.56831 | -77.55505 | 28888 ft | 362 kts | 242° |
| 2026-05-05 22:22 | 44.55570 | -77.58560 | 28615 ft | 361 kts | 242° |
| 2026-05-05 22:22 | 44.54315 | -77.61594 | 28343 ft | 360 kts | 242° |
| 2026-05-05 22:22 | 44.53061 | -77.64624 | 28074 ft | 358 kts | 242° |
| 2026-05-05 22:22 | 44.51815 | -77.67643 | 27802 ft | 357 kts | 242° |
| 2026-05-05 22:23 | 44.50575 | -77.70650 | 27535 ft | 356 kts | 242° |
| 2026-05-05 22:23 | 44.49338 | -77.73643 | 27273 ft | 355 kts | 242° |
| 2026-05-05 22:23 | 44.48085 | -77.76667 | 27005 ft | 354 kts | 242° |
| 2026-05-05 22:23 | 44.46851 | -77.79636 | 26752 ft | 352 kts | 242° |
| 2026-05-05 22:24 | 44.45622 | -77.82599 | 26495 ft | 351 kts | 242° |
| 2026-05-05 22:24 | 44.44397 | -77.85550 | 26244 ft | 350 kts | 242° |
| 2026-05-05 22:24 | 44.43177 | -77.88490 | 25993 ft | 349 kts | 242° |
| 2026-05-05 22:24 | 44.41957 | -77.91422 | 25753 ft | 348 kts | 242° |
| 2026-05-05 22:25 | 44.40737 | -77.94345 | 25500 ft | 347 kts | 242° |
| 2026-05-05 22:25 | 44.39521 | -77.97254 | 25252 ft | 346 kts | 242° |
| 2026-05-05 22:25 | 44.38309 | -78.00156 | 25018 ft | 346 kts | 242° |
| 2026-05-05 22:25 | 44.37097 | -78.03051 | 24772 ft | 345 kts | 242° |
| 2026-05-05 22:26 | 44.35887 | -78.05936 | 24527 ft | 343 kts | 241° |
| 2026-05-05 22:26 | 44.34689 | -78.08797 | 24064 ft | 338 kts | 241° |
| 2026-05-05 22:26 | 44.33507 | -78.11617 | 23535 ft | 335 kts | 241° |
| 2026-05-05 22:26 | 44.32335 | -78.14415 | 22981 ft | 332 kts | 241° |
| 2026-05-05 22:27 | 44.31174 | -78.17175 | 22477 ft | 328 kts | 241° |
| 2026-05-05 22:27 | 44.30023 | -78.19896 | 22014 ft | 323 kts | 241° |
| 2026-05-05 22:27 | 44.28890 | -78.22574 | 21564 ft | 318 kts | 241° |
| 2026-05-05 22:27 | 44.27774 | -78.25216 | 21116 ft | 314 kts | 241° |
| 2026-05-05 22:28 | 44.26671 | -78.27827 | 20678 ft | 310 kts | 241° |
| 2026-05-05 22:28 | 44.25583 | -78.30404 | 20232 ft | 306 kts | 241° |
| 2026-05-05 22:28 | 44.24518 | -78.32917 | 19797 ft | 303 kts | 241° |
| 2026-05-05 22:28 | 44.23435 | -78.35470 | 19350 ft | 301 kts | 241° |
| 2026-05-05 22:29 | 44.22375 | -78.37972 | 18896 ft | 299 kts | 242° |
| 2026-05-05 22:29 | 44.21322 | -78.40457 | 18449 ft | 297 kts | 242° |
| 2026-05-05 22:29 | 44.20275 | -78.42921 | 18077 ft | 293 kts | 242° |
| 2026-05-05 22:29 | 44.19239 | -78.45345 | 17647 ft | 290 kts | 241° |
| 2026-05-05 22:30 | 44.18211 | -78.47748 | 17194 ft | 287 kts | 241° |
| 2026-05-05 22:30 | 44.17207 | -78.50099 | 16762 ft | 286 kts | 241° |
| 2026-05-05 22:30 | 44.16195 | -78.52470 | 16322 ft | 284 kts | 241° |
| 2026-05-05 22:30 | 44.15187 | -78.54830 | 15888 ft | 283 kts | 241° |
| 2026-05-05 22:31 | 44.14186 | -78.57178 | 15458 ft | 282 kts | 241° |
| 2026-05-05 22:31 | 44.13186 | -78.59519 | 15020 ft | 281 kts | 240° |
| 2026-05-05 22:31 | 44.12191 | -78.61850 | 14592 ft | 280 kts | 240° |
| 2026-05-05 22:31 | 44.11198 | -78.64173 | 14160 ft | 279 kts | 240° |
| 2026-05-05 22:32 | 44.10208 | -78.66490 | 13718 ft | 278 kts | 240° |
| 2026-05-05 22:32 | 44.09218 | -78.68803 | 13248 ft | 278 kts | 240° |
| 2026-05-05 22:32 | 44.08230 | -78.71099 | 12805 ft | 275 kts | 240° |
| 2026-05-05 22:32 | 44.07249 | -78.73373 | 12368 ft | 273 kts | 240° |
| 2026-05-05 22:33 | 44.06276 | -78.75635 | 11915 ft | 272 kts | 240° |
| 2026-05-05 22:33 | 44.05314 | -78.77882 | 11542 ft | 268 kts | 240° |
| 2026-05-05 22:33 | 44.04372 | -78.80036 | 11366 ft | 253 kts | 237° |
| 2026-05-05 22:33 | 44.03272 | -78.81898 | 10832 ft | 247 kts | 230° |
| 2026-05-05 22:34 | 44.02110 | -78.83632 | 10499 ft | 245 kts | 230° |
| 2026-05-05 22:34 | 44.00942 | -78.85385 | 10401 ft | 247 kts | 230° |
| 2026-05-05 22:34 | 43.99775 | -78.87142 | 10299 ft | 248 kts | 230° |
| 2026-05-05 22:34 | 43.98609 | -78.88895 | 10146 ft | 247 kts | 230° |
| 2026-05-05 22:35 | 43.97442 | -78.90645 | 9917 ft | 247 kts | 230° |
| 2026-05-05 22:35 | 43.96277 | -78.92390 | 9671 ft | 247 kts | 230° |
| 2026-05-05 22:35 | 43.95110 | -78.94137 | 9406 ft | 246 kts | 230° |
| 2026-05-05 22:35 | 43.93977 | -78.95830 | 9146 ft | 239 kts | 230° |
| 2026-05-05 22:36 | 43.92859 | -78.97499 | 8881 ft | 232 kts | 230° |
| 2026-05-05 22:36 | 43.91792 | -78.99086 | 8613 ft | 217 kts | 230° |
| 2026-05-05 22:36 | 43.90775 | -79.00601 | 8357 ft | 213 kts | 230° |
| 2026-05-05 22:36 | 43.89773 | -79.02099 | 8105 ft | 211 kts | 230° |
| 2026-05-05 22:37 | 43.88778 | -79.03587 | 7858 ft | 210 kts | 230° |
| 2026-05-05 22:37 | 43.87817 | -79.05103 | 7603 ft | 208 kts | 238° |
| 2026-05-05 22:37 | 43.87200 | -79.06894 | 7356 ft | 205 kts | 254° |
| 2026-05-05 22:37 | 43.87033 | -79.08838 | 7108 ft | 203 kts | 269° |
| 2026-05-05 22:38 | 43.87091 | -79.10772 | 6868 ft | 199 kts | 268° |
| 2026-05-05 22:38 | 43.87140 | -79.12678 | 6622 ft | 197 kts | 268° |
| 2026-05-05 22:38 | 43.87185 | -79.14577 | 6381 ft | 197 kts | 268° |
| 2026-05-05 22:38 | 43.87228 | -79.16470 | 6136 ft | 197 kts | 268° |
| 2026-05-05 22:39 | 43.87269 | -79.18356 | 5877 ft | 194 kts | 268° |
| 2026-05-05 22:39 | 43.87309 | -79.20214 | 5605 ft | 191 kts | 268° |
| 2026-05-05 22:39 | 43.87350 | -79.22040 | 5368 ft | 188 kts | 268° |
| 2026-05-05 22:39 | 43.87389 | -79.23842 | 5115 ft | 185 kts | 268° |
| 2026-05-05 22:40 | 43.87429 | -79.25593 | 4901 ft | 177 kts | 268° |
| 2026-05-05 22:40 | 43.87470 | -79.27285 | 4651 ft | 175 kts | 268° |
| 2026-05-05 22:40 | 43.87490 | -79.28938 | 4388 ft | 167 kts | 263° |
| 2026-05-05 22:40 | 43.87255 | -79.30476 | 4134 ft | 160 kts | 248° |
| 2026-05-05 22:41 | 43.86749 | -79.31799 | 4022 ft | 152 kts | 236° |
| 2026-05-05 22:41 | 43.86053 | -79.32883 | 4016 ft | 153 kts | 228° |
| 2026-05-05 22:41 | 43.85318 | -79.33935 | 4012 ft | 151 kts | 229° |
| 2026-05-05 22:41 | 43.84587 | -79.34985 | 4014 ft | 152 kts | 228° |
| 2026-05-05 22:42 | 43.83855 | -79.36036 | 4012 ft | 152 kts | 229° |
| 2026-05-05 22:42 | 43.83119 | -79.37090 | 4015 ft | 153 kts | 227° |
| 2026-05-05 22:42 | 43.82362 | -79.38125 | 4011 ft | 153 kts | 227° |
| 2026-05-05 22:42 | 43.81618 | -79.39176 | 4013 ft | 152 kts | 229° |
| 2026-05-05 22:43 | 43.80887 | -79.40230 | 4007 ft | 152 kts | 229° |
| 2026-05-05 22:43 | 43.80161 | -79.41287 | 4007 ft | 151 kts | 229° |
| 2026-05-05 22:43 | 43.79432 | -79.42351 | 3984 ft | 153 kts | 229° |
| 2026-05-05 22:43 | 43.78699 | -79.43423 | 3845 ft | 153 kts | 229° |
| 2026-05-05 22:44 | 43.77968 | -79.44492 | 3678 ft | 153 kts | 228° |
| 2026-05-05 22:44 | 43.77236 | -79.45562 | 3477 ft | 152 kts | 227° |
| 2026-05-05 22:44 | 43.76509 | -79.46625 | 3274 ft | 152 kts | 227° |
| 2026-05-05 22:44 | 43.75785 | -79.47683 | 3076 ft | 152 kts | 227° |
| 2026-05-05 22:45 | 43.75057 | -79.48746 | 2869 ft | 153 kts | 227° |
| 2026-05-05 22:45 | 43.74325 | -79.49814 | 2670 ft | 153 kts | 226° |
| 2026-05-05 22:45 | 43.73623 | -79.50840 | 2483 ft | 138 kts | 227° |
| 2026-05-05 22:45 | 43.72999 | -79.51749 | 2298 ft | 124 kts | 226° |
| 2026-05-05 22:46 | 43.72420 | -79.52595 | 2136 ft | 119 kts | 226° |
| 2026-05-05 22:46 | 43.71854 | -79.53420 | 1978 ft | 118 kts | 227° |
| 2026-05-05 22:46 | 43.71288 | -79.54245 | 1824 ft | 119 kts | 226° |
| 2026-05-05 22:46 | 43.70727 | -79.55063 | 1646 ft | 116 kts | 225° |
| 2026-05-05 22:47 | 43.70165 | -79.55876 | 1408 ft | 119 kts | 229° |
| 2026-05-05 22:47 | 43.69587 | -79.56720 | 1201 ft | 123 kts | 229° |
| 2026-05-05 22:47 | 43.68983 | -79.57590 | 1057 ft | 126 kts | 229° |
| 2026-05-05 22:47 | 43.68371 | -79.58473 | 862 ft | 128 kts | 231° |
| 2026-05-05 22:48 | 43.67766 | -79.59363 | 662 ft | 126 kts | 232° |
| 2026-05-05 22:48 | 43.67173 | -79.60242 | 563 ft | 120 kts | 224° |
| 2026-05-05 22:48 | 43.66734 | -79.60872 | 561 ft | 49 kts | 226° |
| 2026-05-05 22:48 | 43.66594 | -79.61077 | 564 ft | 17 kts | 226° |
| 2026-05-05 22:49 | 43.66518 | -79.61190 | 558 ft | 17 kts | 228° |
| 2026-05-05 22:49 | 43.66444 | -79.61324 | 562 ft | 18 kts | 243° |
| 2026-05-05 22:49 | 43.66414 | -79.61450 | 562 ft | 11 kts | 252° |
| 2026-05-05 22:49 | 43.66387 | -79.61560 | 562 ft | 13 kts | 252° |
| 2026-05-05 22:50 | 43.66377 | -79.61669 | 565 ft | 12 kts | 283° |
| 2026-05-05 22:50 | 43.66427 | -79.61761 | 564 ft | 12 kts | 314° |
| 2026-05-05 22:50 | 43.66495 | -79.61848 | 560 ft | 15 kts | 318° |
| 2026-05-05 22:50 | 43.66573 | -79.61948 | 559 ft | 16 kts | 317° |
| 2026-05-05 22:51 | 43.66650 | -79.62008 | 569 ft | 12 kts | 5° |
| 2026-05-05 22:51 | 43.66711 | -79.61957 | 566 ft | 9 kts | 40° |
| 2026-05-05 22:51 | 43.66756 | -79.61899 | 567 ft | 8 kts | 43° |
| 2026-05-05 22:51 | 43.66797 | -79.61847 | 572 ft | 8 kts | 43° |
| 2026-05-05 22:52 | 43.66841 | -79.61791 | 566 ft | 11 kts | 43° |
| 2026-05-05 22:52 | 43.66907 | -79.61708 | 567 ft | 13 kts | 42° |
| 2026-05-05 22:52 | 43.66969 | -79.61630 | 566 ft | 12 kts | 42° |
| 2026-05-05 22:52 | 43.67026 | -79.61557 | 571 ft | 10 kts | 43° |
| 2026-05-05 22:53 | 43.67072 | -79.61498 | 571 ft | 10 kts | 43° |
| 2026-05-05 22:53 | 43.67138 | -79.61414 | 571 ft | 14 kts | 41° |
| 2026-05-05 22:53 | 43.67202 | -79.61320 | 568 ft | 13 kts | 51° |
| 2026-05-05 22:53 | 43.67271 | -79.61257 | 564 ft | 13 kts | 354° |
| 2026-05-05 22:54 | 43.67345 | -79.61344 | 562 ft | 15 kts | 314° |
| 2026-05-05 22:54 | 43.67423 | -79.61453 | 563 ft | 17 kts | 315° |
| 2026-05-05 22:54 | 43.67513 | -79.61571 | 563 ft | 19 kts | 317° |
| 2026-05-05 22:54 | 43.67613 | -79.61700 | 570 ft | 20 kts | 317° |
| 2026-05-05 22:55 | 43.67716 | -79.61833 | 563 ft | 18 kts | 316° |
| 2026-05-05 22:55 | 43.67801 | -79.61944 | 570 ft | 14 kts | 318° |
| 2026-05-05 22:55 | 43.67838 | -79.61992 | 562 ft | 8 kts | 317° |
| 2026-05-05 22:55 | 43.67891 | -79.62051 | 562 ft | 11 kts | 336° |
| 2026-05-05 22:56 | 43.67969 | -79.62022 | 571 ft | 12 kts | 45° |
| 2026-05-05 22:56 | 43.67991 | -79.61957 | 567 ft | 6 kts | 69° |
| 2026-05-05 22:56 | 43.68006 | -79.61909 | 564 ft | 5 kts | 62° |
| 2026-05-05 22:56 | 43.68025 | -79.61874 | 569 ft | 4 kts | 50° |
| 2026-05-05 22:57 | 43.68041 | -79.61844 | 562 ft | 3 kts | 70° |
| 2026-05-05 22:57 | 43.68036 | -79.61815 | 564 ft | 5 kts | 118° |
| 2026-05-05 22:57 | 43.68013 | -79.61784 | 565 ft | 4 kts | 137° |
| 2026-05-05 22:57 | 43.67997 | -79.61765 | 562 ft | 2 kts | 136° |
| 2026-05-05 22:58 | 43.67992 | -79.61758 | 562 ft | 0 kts | 135° |
| 2026-05-05 22:58 | 43.67992 | -79.61757 | 562 ft | 1 kts | 135° |